Time;durP1;ratioP1;P1;durP2;ratioP2;P2;SDS_P1;SDS_P2;PMS_P1;PMS_P2;Temp;Humidity;BMP_temperature;BMP_pressure;BME280_temperature;BME280_humidity;BME280_pressure;Samples;Min_cycle;Max_cycle;Signal;HPM_P1;HPM_P2
2021/08/22 00:02:12;;;;;;;4.23;3.00;;;;;;;19.29;100.00;96760.69;4975757;28;20384;-80
2021/08/22 00:04:41;;;;;;;4.63;2.70;;;;;;;19.29;100.00;96766.81;4975966;28;20296;-80
2021/08/22 00:07:08;;;;;;;3.80;2.60;;;;;;;19.35;100.00;96767.88;4975822;28;20276;-80
2021/08/22 00:09:35;;;;;;;3.03;2.80;;;;;;;19.18;100.00;96765.56;4975912;28;20211;-80
2021/08/22 00:12:02;;;;;;;3.00;2.80;;;;;;;19.17;100.00;96769.25;4975579;28;20292;-80
2021/08/22 00:14:30;;;;;;;3.13;2.83;;;;;;;19.22;100.00;96772.16;4975894;28;20670;-80
2021/08/22 00:16:57;;;;;;;2.93;2.73;;;;;;;19.18;100.00;96765.56;4975716;28;20577;-80
2021/08/22 00:19:24;;;;;;;3.80;2.97;;;;;;;18.94;100.00;96771.44;4976080;28;20204;-80
2021/08/22 00:21:53;;;;;;;3.20;3.00;;;;;;;18.90;100.00;96756.88;4975396;28;20693;-79
2021/08/22 00:24:20;;;;;;;3.30;3.00;;;;;;;19.16;100.00;96756.16;4975713;28;20585;-80
2021/08/22 00:26:47;;;;;;;2.97;2.67;;;;;;;19.12;100.00;96763.72;4975715;28;20280;-79
2021/08/22 00:29:15;;;;;;;5.03;3.50;;;;;;;19.03;100.00;96751.59;4975839;28;20292;-80
2021/08/22 00:31:42;;;;;;;3.37;3.07;;;;;;;19.01;100.00;96762.44;4975204;28;20205;-80
2021/08/22 00:34:09;;;;;;;2.33;2.23;;;;;;;19.17;100.00;96758.59;4975589;28;20197;-80
2021/08/22 00:36:37;;;;;;;3.40;3.00;;;;;;;19.05;100.00;96759.38;4975635;28;20207;-79
2021/08/22 00:39:05;;;;;;;3.23;2.93;;;;;;;18.93;100.00;96761.81;4975194;28;20655;-79
2021/08/22 00:41:33;;;;;;;2.93;2.73;;;;;;;19.02;100.00;96763.28;4975104;28;20212;-79
2021/08/22 00:44:00;;;;;;;4.33;2.90;;;;;;;18.84;100.00;96770.97;4975247;28;20267;-79
2021/08/22 00:46:28;;;;;;;2.50;2.30;;;;;;;18.75;100.00;96767.66;4975370;28;20589;-79
2021/08/22 00:48:55;;;;;;;4.73;3.10;;;;;;;18.96;100.00;96766.75;4975127;28;20308;-79
2021/08/22 00:51:22;;;;;;;5.80;3.10;;;;;;;18.76;100.00;96764.78;4975020;28;20207;-79
2021/08/22 00:53:49;;;;;;;3.10;2.90;;;;;;;18.50;100.00;96756.66;4975393;28;20205;-79
2021/08/22 00:56:18;;;;;;;6.37;3.00;;;;;;;18.60;100.00;96753.63;4975050;28;20193;-79
2021/08/22 00:58:46;;;;;;;3.57;3.10;;;;;;;18.54;100.00;96753.41;4975094;28;20216;-79
2021/08/22 01:01:18;;;;;;;3.30;3.10;;;;;;;18.61;100.00;96757.94;4975092;28;20201;-79
2021/08/22 01:03:51;;;;;;;4.40;2.87;;;;;;;18.37;100.00;96756.59;4975012;28;20189;-79
2021/08/22 01:06:29;;;;;;;3.00;2.80;;;;;;;18.62;100.00;96765.72;4974834;28;20192;-79
2021/08/22 01:09:02;;;;;;;5.57;2.97;;;;;;;18.60;100.00;96757.13;4975030;28;20189;-79
2021/08/22 01:11:35;;;;;;;3.03;2.83;;;;;;;18.51;100.00;96761.78;4975054;28;20570;-79
2021/08/22 01:14:10;;;;;;;4.40;3.57;;;;;;;18.46;100.00;96763.38;4974819;28;20190;-79
2021/08/22 01:16:41;;;;;;;3.63;2.90;;;;;;;18.44;100.00;96762.75;4974378;28;20189;-79
2021/08/22 01:19:18;;;;;;;6.57;3.67;;;;;;;18.25;100.00;96748.31;4975049;28;20277;-79
2021/08/22 01:21:47;;;;;;;2.30;2.20;;;;;;;18.42;100.00;96746.97;4974826;28;20228;-79
2021/08/22 01:24:19;;;;;;;4.97;3.13;;;;;;;18.21;100.00;96747.88;4974687;28;20201;-79
2021/08/22 01:26:48;;;;;;;3.13;2.93;;;;;;;18.20;100.00;96748.91;4974368;28;20299;-79
2021/08/22 01:29:18;;;;;;;4.63;3.10;;;;;;;18.10;100.00;96740.44;4974467;28;20303;-79
2021/08/22 01:31:49;;;;;;;3.40;3.10;;;;;;;17.93;100.00;96747.88;4974340;28;20520;-79
2021/08/22 01:34:19;;;;;;;3.03;2.83;;;;;;;17.76;100.00;96742.03;4974449;28;20659;-79
2021/08/22 01:36:47;;;;;;;3.80;2.87;;;;;;;17.82;100.00;96743.09;4974592;28;20217;-79
2021/08/22 01:39:15;;;;;;;7.47;4.00;;;;;;;17.85;100.00;96737.41;4974136;28;20205;-79
2021/08/22 01:41:44;;;;;;;5.33;2.97;;;;;;;17.82;100.00;96743.91;4974062;28;20215;-79
2021/08/22 01:44:16;;;;;;;3.70;3.17;;;;;;;17.81;100.00;96736.16;4974527;28;20666;-79
2021/08/22 01:46:44;;;;;;;5.77;3.23;;;;;;;17.73;100.00;96737.03;4973444;28;20197;-80
2021/08/22 01:49:13;;;;;;;3.03;2.70;;;;;;;17.61;100.00;96735.94;4974156;28;20211;-79
2021/08/22 01:51:43;;;;;;;3.03;2.80;;;;;;;17.51;100.00;96730.13;4973958;28;20284;-79
2021/08/22 01:54:12;;;;;;;2.93;2.70;;;;;;;17.56;100.00;96731.22;4973509;28;20292;-79
2021/08/22 01:56:40;;;;;;;4.93;3.67;;;;;;;17.65;100.00;96728.41;4973682;28;20211;-79
2021/08/22 01:59:08;;;;;;;3.63;3.33;;;;;;;17.55;100.00;96731.38;4973969;28;20296;-79
2021/08/22 02:01:36;;;;;;;3.40;3.10;;;;;;;17.45;100.00;96734.34;4974071;28;20656;-80
2021/08/22 02:04:08;;;;;;;6.13;2.97;;;;;;;17.25;100.00;96720.06;4974177;28;20232;-79
2021/08/22 02:06:40;;;;;;;3.77;3.40;;;;;;;17.24;100.00;96718.41;4973386;28;20200;-79
2021/08/22 02:09:11;;;;;;;3.27;2.90;;;;;;;17.03;100.00;96713.91;4974213;28;20189;-79
2021/08/22 02:11:43;;;;;;;3.10;2.90;;;;;;;17.22;100.00;96710.66;4973583;28;20186;-79
2021/08/22 02:14:14;;;;;;;4.40;3.53;;;;;;;17.33;100.00;96706.66;4973789;28;20247;-79
2021/08/22 02:16:45;;;;;;;3.70;3.37;;;;;;;17.56;100.00;96709.09;4973390;28;20331;-79
2021/08/22 02:19:13;;;;;;;3.37;3.17;;;;;;;17.70;100.00;96710.03;4974032;28;20277;-79
2021/08/22 02:21:42;;;;;;;4.37;3.80;;;;;;;17.62;100.00;96716.31;4973381;28;20205;-79
2021/08/22 02:24:11;;;;;;;4.10;3.70;;;;;;;17.51;100.00;96704.38;4973605;28;20199;-79
2021/08/22 02:26:39;;;;;;;5.00;3.47;;;;;;;17.49;100.00;96708.22;4973224;28;20297;-79
2021/08/22 02:29:06;;;;;;;3.77;3.47;;;;;;;17.44;100.00;96711.47;4973794;28;20205;-79
2021/08/22 02:31:34;;;;;;;3.70;3.40;;;;;;;17.47;100.00;96710.25;4973643;28;20208;-79
2021/08/22 02:34:01;;;;;;;3.83;3.43;;;;;;;17.51;100.00;96708.88;4973427;28;20200;-79
2021/08/22 02:36:29;;;;;;;3.80;3.47;;;;;;;17.30;100.00;96699.06;4972909;28;20239;-78
2021/08/22 02:38:57;;;;;;;3.87;3.57;;;;;;;16.86;100.00;96695.56;4973698;28;20227;-80
2021/08/22 02:41:26;;;;;;;4.47;4.07;;;;;;;16.84;100.00;96696.78;4973105;28;20748;-79
2021/08/22 02:43:54;;;;;;;3.40;3.10;;;;;;;17.06;100.00;96689.63;4973000;28;20237;-80
2021/08/22 02:46:21;;;;;;;4.50;4.10;;;;;;;16.92;100.00;96693.16;4973089;28;20204;-79
2021/08/22 02:48:49;;;;;;;4.60;3.83;;;;;;;16.85;100.00;96693.09;4973537;28;20234;-79
2021/08/22 02:51:16;;;;;;;4.17;3.87;;;;;;;17.07;100.00;96692.09;4973367;28;20292;-79
2021/08/22 02:53:43;;;;;;;6.27;3.63;;;;;;;17.35;100.00;96694.84;4973448;28;20586;-79
2021/08/22 02:56:10;;;;;;;3.63;3.33;;;;;;;17.54;100.00;96693.34;4972794;28;20662;-79
2021/08/22 02:58:39;;;;;;;5.77;4.30;;;;;;;17.58;100.00;96691.94;4973057;28;20688;-79
2021/08/22 03:01:07;;;;;;;5.00;4.60;;;;;;;17.71;100.00;96696.56;4973328;28;20290;-80
2021/08/22 03:03:34;;;;;;;4.63;4.07;;;;;;;17.83;100.00;96697.69;4973028;28;20212;-79
2021/08/22 03:06:01;;;;;;;4.70;4.30;;;;;;;17.70;100.00;96697.59;4974105;28;20208;-79
2021/08/22 03:08:28;;;;;;;4.63;3.80;;;;;;;17.82;100.00;96698.72;4976908;28;20227;-80
2021/08/22 03:10:56;;;;;;;6.23;4.47;;;;;;;17.78;100.00;96692.16;4977301;28;20581;-79
2021/08/22 03:13:23;;;;;;;4.90;4.40;;;;;;;17.86;100.00;96696.50;4976943;28;20304;-79
2021/08/22 03:15:52;;;;;;;4.60;4.20;;;;;;;17.92;100.00;96693.06;4977071;28;20193;-79
2021/08/22 03:18:19;;;;;;;4.37;3.97;;;;;;;17.87;100.00;96694.66;4976766;28;20200;-79
2021/08/22 03:20:46;;;;;;;4.23;3.93;;;;;;;17.72;100.00;96690.22;4977065;28;20211;-79
2021/08/22 03:23:13;;;;;;;4.57;4.17;;;;;;;17.71;100.00;96693.91;4976501;28;20689;-79
2021/08/22 03:25:41;;;;;;;4.70;4.30;;;;;;;17.76;100.00;96693.34;4976789;28;20678;-79
2021/08/22 03:28:08;;;;;;;3.77;3.47;;;;;;;17.70;100.00;96694.06;4976521;28;20227;-79
2021/08/22 03:30:35;;;;;;;3.97;3.67;;;;;;;17.73;100.00;96694.50;4976793;28;20205;-79
2021/08/22 03:33:04;;;;;;;4.33;3.93;;;;;;;17.76;100.00;96694.16;4976613;28;20205;-79
2021/08/22 03:35:32;;;;;;;4.43;4.03;;;;;;;17.80;100.00;96690.13;4976924;28;20197;-79
2021/08/22 03:37:59;;;;;;;4.53;4.20;;;;;;;17.79;100.00;96696.44;4976330;28;20205;-80
2021/08/22 03:40:26;;;;;;;4.20;3.90;;;;;;;17.86;100.00;96695.66;4976986;28;20244;-80
2021/08/22 03:42:54;;;;;;;3.80;3.50;;;;;;;17.92;100.00;96694.91;4975882;28;20356;-79
2021/08/22 03:45:21;;;;;;;4.13;3.83;;;;;;;17.86;100.00;96701.81;4976721;28;20641;-80
2021/08/22 03:47:49;;;;;;;3.90;3.60;;;;;;;17.93;100.00;96704.50;4976465;28;20676;-80
2021/08/22 03:50:18;;;;;;;5.93;3.80;;;;;;;18.00;100.00;96708.03;4976360;28;20201;-80
2021/08/22 03:52:48;;;;;;;4.20;3.80;;;;;;;18.00;100.00;96708.03;4976151;28;20201;-79
2021/08/22 03:55:15;;;;;;;4.23;3.87;;;;;;;18.00;100.00;96710.69;4976307;28;20213;-79
2021/08/22 03:57:42;;;;;;;4.10;3.70;;;;;;;17.95;100.00;96711.28;4976325;28;20280;-79
2021/08/22 04:00:11;;;;;;;5.10;3.97;;;;;;;17.97;100.00;96705.75;4976132;28;20202;-78
2021/08/22 04:02:39;;;;;;;4.67;4.30;;;;;;;17.80;100.00;96708.75;4975937;28;20193;-79
2021/08/22 04:05:08;;;;;;;4.03;3.70;;;;;;;17.90;100.00;96712.88;4975998;28;20201;-79
2021/08/22 04:07:37;;;;;;;6.10;4.10;;;;;;;17.96;100.00;96712.09;4975685;28;20231;-78
2021/08/22 04:10:06;;;;;;;6.00;3.90;;;;;;;17.99;100.00;96717.88;4976329;28;20593;-79
2021/08/22 04:12:34;;;;;;;5.70;3.80;;;;;;;18.01;100.00;96717.66;4975736;28;20204;-78
2021/08/22 04:15:01;;;;;;;3.70;3.40;;;;;;;18.02;100.00;96719.31;4975706;28;20239;-79
2021/08/22 04:17:29;;;;;;;3.80;3.50;;;;;;;18.12;100.00;96722.47;4975524;28;20239;-79
2021/08/22 04:19:56;;;;;;;4.10;3.70;;;;;;;18.11;100.00;96730.63;4975782;28;20197;-78
2021/08/22 04:22:23;;;;;;;5.63;3.83;;;;;;;18.10;100.00;96727.13;4975369;28;20240;-78
2021/08/22 04:24:52;;;;;;;4.87;4.00;;;;;;;18.07;100.00;96730.19;4975867;28;20674;-78
2021/08/22 04:27:19;;;;;;;5.40;3.27;;;;;;;18.02;100.00;96729.97;4975434;28;20200;-78
2021/08/22 04:29:47;;;;;;;3.90;3.60;;;;;;;18.10;100.00;96735.13;4975887;28;20288;-78
2021/08/22 04:32:14;;;;;;;4.63;3.63;;;;;;;18.26;100.00;96737.47;4975173;28;20205;-79
2021/08/22 04:34:41;;;;;;;4.17;3.77;;;;;;;18.29;100.00;96737.09;4975626;28;20208;-79
2021/08/22 04:37:08;;;;;;;3.43;3.13;;;;;;;18.33;100.00;96742.03;4975651;28;20641;-78
2021/08/22 04:39:36;;;;;;;4.33;3.97;;;;;;;18.29;100.00;96729.13;4975275;28;20211;-79
2021/08/22 04:42:05;;;;;;;4.23;3.90;;;;;;;18.27;100.00;96744.44;4975055;28;22006;-79
2021/08/22 04:44:32;;;;;;;5.10;3.97;;;;;;;18.37;100.00;96738.78;4975681;28;20189;-79
2021/08/22 04:46:59;;;;;;;3.83;3.50;;;;;;;18.43;100.00;96742.50;4975230;28;20212;-78
2021/08/22 04:49:26;;;;;;;6.80;3.67;;;;;;;18.39;100.00;96749.22;4975537;28;20264;-79
2021/08/22 04:51:54;;;;;;;4.07;3.33;;;;;;;18.47;100.00;96746.41;4974894;28;20584;-79
2021/08/22 04:54:23;;;;;;;4.20;3.73;;;;;;;18.49;100.00;96745.16;4975517;28;20233;-78
2021/08/22 04:56:50;;;;;;;4.10;3.80;;;;;;;18.53;100.00;96749.09;4974994;28;20197;-79
2021/08/22 04:59:19;;;;;;;4.03;3.73;;;;;;;18.52;100.00;96751.94;4975056;28;20197;-78
2021/08/22 05:01:46;;;;;;;3.60;3.30;;;;;;;18.56;100.00;96752.38;4975275;28;20196;-78
2021/08/22 05:04:14;;;;;;;3.10;2.90;;;;;;;18.57;100.00;96752.19;4974783;28;20296;-78
2021/08/22 05:06:41;;;;;;;3.70;3.40;;;;;;;18.59;100.00;96750.16;4975179;28;20648;-78
2021/08/22 05:09:08;;;;;;;3.60;3.30;;;;;;;18.61;100.00;96758.75;4974820;28;20233;-79
2021/08/22 05:11:36;;;;;;;3.47;3.20;;;;;;;18.67;100.00;96751.81;4975083;28;20213;-78
2021/08/22 05:14:03;;;;;;;7.40;3.80;;;;;;;18.77;100.00;96752.31;4975140;28;20200;-79
2021/08/22 05:16:32;;;;;;;5.30;3.53;;;;;;;18.81;100.00;96758.06;4974332;28;20201;-79
2021/08/22 05:18:59;;;;;;;5.57;3.80;;;;;;;18.88;100.00;96758.94;4975037;28;20197;-79
2021/08/22 05:21:27;;;;;;;3.83;3.60;;;;;;;18.92;100.00;96762.84;4974683;28;20205;-79
2021/08/22 05:23:54;;;;;;;3.70;3.40;;;;;;;19.01;100.00;96761.63;4974660;28;20674;-78
2021/08/22 05:26:22;;;;;;;4.70;4.30;;;;;;;19.12;100.00;96760.22;4974226;28;20201;-79
2021/08/22 05:28:49;;;;;;;5.50;4.00;;;;;;;19.21;100.00;96764.34;4973910;28;20382;-79
2021/08/22 05:31:16;;;;;;;4.27;3.50;;;;;;;19.27;100.00;96760.91;4974360;28;20205;-79
2021/08/22 05:33:46;;;;;;;4.70;4.30;;;;;;;19.34;100.00;96755.59;4974413;28;20202;-79
2021/08/22 05:36:18;;;;;;;4.10;3.70;;;;;;;19.42;100.00;96760.72;4974149;28;20566;-79
2021/08/22 05:38:46;;;;;;;4.73;3.60;;;;;;;19.50;100.00;96755.22;4974333;28;20564;-79
2021/08/22 05:41:13;;;;;;;3.70;3.40;;;;;;;19.55;100.00;96765.25;4974316;28;20201;-79
2021/08/22 05:43:41;;;;;;;4.13;3.73;;;;;;;19.61;100.00;96757.28;4973888;28;20295;-79
2021/08/22 05:46:09;;;;;;;4.23;3.83;;;;;;;19.75;100.00;96763.47;4974234;28;20621;-78
2021/08/22 05:48:37;;;;;;;4.57;3.40;;;;;;;19.77;100.00;96765.91;4974193;28;20229;-78
2021/08/22 05:51:06;;;;;;;5.80;4.33;;;;;;;19.85;100.00;96760.41;4974092;28;20211;-78
2021/08/22 05:53:33;;;;;;;3.57;3.37;;;;;;;19.89;100.00;96762.44;4974035;28;20208;-79
2021/08/22 05:56:00;;;;;;;4.60;4.20;;;;;;;20.02;100.00;96761.63;4974317;28;20197;-78
2021/08/22 05:58:28;;;;;;;5.40;3.77;;;;;;;20.13;100.00;96761.00;4974258;28;20200;-79
2021/08/22 06:00:55;;;;;;;3.57;3.30;;;;;;;20.20;100.00;96766.34;4974417;28;20560;-79
2021/08/22 06:03:22;;;;;;;4.80;4.40;;;;;;;20.32;100.00;96766.50;4974046;28;20638;-79
2021/08/22 06:05:51;;;;;;;4.00;3.70;;;;;;;20.27;100.00;96766.31;4973609;28;20248;-79
2021/08/22 06:08:19;;;;;;;5.17;4.37;;;;;;;20.39;100.00;96770.81;4973605;28;20235;-79
2021/08/22 06:10:47;;;;;;;3.77;3.40;;;;;;;20.60;100.00;96775.09;4973808;28;20205;-79
2021/08/22 06:13:14;;;;;;;4.10;3.70;;;;;;;20.82;100.00;96772.19;4973366;28;20211;-79
2021/08/22 06:15:41;;;;;;;3.63;3.37;;;;;;;20.98;100.00;96770.88;4973697;28;20205;-79
2021/08/22 06:18:08;;;;;;;4.07;3.77;;;;;;;21.20;100.00;96776.72;4973494;28;20209;-79
2021/08/22 06:20:36;;;;;;;5.53;3.60;;;;;;;21.34;100.00;96775.69;4973696;28;20201;-79
2021/08/22 06:23:03;;;;;;;4.07;3.77;;;;;;;21.52;100.00;96783.00;4973247;28;20202;-77
2021/08/22 06:25:32;;;;;;;4.00;3.50;;;;;;;21.59;100.00;96783.75;4973874;28;20193;-78
2021/08/22 06:27:59;;;;;;;4.93;3.37;;;;;;;21.70;100.00;96784.94;4973277;28;20200;-78
2021/08/22 06:30:26;;;;;;;3.97;3.20;;;;;;;21.84;100.00;96792.63;4973527;28;20205;-78
2021/08/22 06:32:53;;;;;;;3.90;3.60;;;;;;;21.91;100.00;96787.25;4973080;28;20666;-78
2021/08/22 06:35:21;;;;;;;7.50;3.40;;;;;;;22.04;100.00;96797.84;4973447;28;20208;-78
2021/08/22 06:37:49;;;;;;;4.40;3.37;;;;;;;22.19;100.00;96799.41;4973511;28;20694;-79
2021/08/22 06:40:16;;;;;;;4.20;3.90;;;;;;;22.30;100.00;96801.34;4973467;28;20219;-79
2021/08/22 06:42:45;;;;;;;3.50;3.20;;;;;;;22.42;100.00;96802.28;4972610;28;20272;-79
2021/08/22 06:45:12;;;;;;;3.90;3.60;;;;;;;22.48;100.00;96800.56;4973254;28;20201;-79
2021/08/22 06:47:40;;;;;;;3.70;3.40;;;;;;;22.51;100.00;96806.34;4972997;28;20201;-78
2021/08/22 06:50:08;;;;;;;4.57;3.97;;;;;;;22.61;100.00;96797.78;4973163;28;20264;-79
2021/08/22 06:52:35;;;;;;;3.40;3.10;;;;;;;22.70;100.00;96809.84;4972010;28;20733;-79
2021/08/22 06:55:02;;;;;;;3.73;3.30;;;;;;;22.86;100.00;96800.41;4971554;28;20208;-79
2021/08/22 06:57:29;;;;;;;3.37;2.97;;;;;;;23.04;100.00;96814.88;4973201;28;20204;-79
2021/08/22 06:59:58;;;;;;;3.57;3.27;;;;;;;23.26;100.00;96808.00;4973074;28;20200;-79
2021/08/22 07:02:25;;;;;;;4.27;3.23;;;;;;;23.41;100.00;96813.78;4972849;28;20197;-79
2021/08/22 07:04:52;;;;;;;4.10;3.80;;;;;;;23.51;100.00;96813.22;4972753;28;20209;-79
2021/08/22 07:07:20;;;;;;;3.13;2.93;;;;;;;23.45;100.00;96811.44;4973112;28;20302;-78
2021/08/22 07:09:47;;;;;;;3.80;3.50;;;;;;;23.48;100.00;96814.53;4973232;28;20227;-78
2021/08/22 07:12:15;;;;;;;8.07;2.97;;;;;;;23.59;100.00;96804.88;4972554;28;20201;-79
2021/08/22 07:14:42;;;;;;;4.87;2.60;;;;;;;23.79;100.00;96812.66;4973086;28;20221;-78
2021/08/22 07:17:15;;;;;;;3.50;3.20;;;;;;;23.91;100.00;96802.78;4973140;28;20208;-78
2021/08/22 07:19:42;;;;;;;4.33;2.90;;;;;;;24.07;100.00;96809.34;4972632;28;20662;-78
2021/08/22 07:22:09;;;;;;;12.63;3.33;;;;;;;24.27;100.00;96811.72;4973044;28;20578;-79
2021/08/22 07:24:37;;;;;;;3.47;3.20;;;;;;;24.41;100.00;96812.34;4972895;28;20193;-79
2021/08/22 07:27:04;;;;;;;2.97;2.77;;;;;;;24.67;100.00;96811.88;4972748;28;20754;-79
2021/08/22 07:29:32;;;;;;;3.10;2.90;;;;;;;24.61;100.00;96812.00;4972503;28;20231;-79
2021/08/22 07:31:59;;;;;;;3.80;3.43;;;;;;;24.81;100.00;96807.06;4973016;28;20205;-79
2021/08/22 07:34:28;;;;;;;3.83;3.43;;;;;;;25.24;100.00;96810.41;4972786;28;20201;-79
2021/08/22 07:36:55;;;;;;;3.43;2.70;;;;;;;25.36;100.00;96808.50;4972421;28;20197;-79
2021/08/22 07:39:22;;;;;;;5.23;3.43;;;;;;;25.57;100.00;96801.63;4972781;28;20205;-79
2021/08/22 07:41:49;;;;;;;3.20;3.00;;;;;;;25.87;100.00;96801.38;4972360;28;20197;-79
2021/08/22 07:44:17;;;;;;;3.27;3.07;;;;;;;25.89;100.00;96798.47;4973114;28;20197;-79
2021/08/22 07:46:44;;;;;;;3.30;3.07;;;;;;;26.29;100.00;96806.38;4972345;28;20248;-79
2021/08/22 07:49:11;;;;;;;4.10;3.70;;;;;;;26.35;100.00;96804.59;4972618;28;20224;-79
2021/08/22 07:51:40;;;;;;;3.20;3.00;;;;;;;26.64;100.00;96802.66;4973128;28;20307;-80
2021/08/22 07:54:07;;;;;;;3.72;3.42;;;;;;;26.85;100.00;96804.56;4976002;28;20670;-79
2021/08/22 07:56:34;;;;;;;3.80;3.50;;;;;;;27.14;100.00;96807.94;4976047;28;20203;-79
2021/08/22 07:59:02;;;;;;;2.95;2.75;;;;;;;27.02;100.00;96808.03;4976244;28;20197;-79
2021/08/22 08:01:29;;;;;;;3.22;3.00;;;;;;;27.21;100.00;96803.16;4976293;28;20209;-79
2021/08/22 08:03:56;;;;;;;3.53;2.97;;;;;;;27.59;100.00;96798.72;4976238;28;20232;-80
2021/08/22 08:06:23;;;;;;;5.00;3.65;;;;;;;27.59;100.00;96797.91;4976243;28;20287;-79
2021/08/22 08:08:52;;;;;;;6.03;3.58;;;;;;;27.45;100.00;96797.50;4975992;28;20316;-80
2021/08/22 08:11:19;;;;;;;3.83;3.20;;;;;;;27.47;100.00;96793.47;4976147;28;20217;-80
2021/08/22 08:13:47;;;;;;;6.32;3.30;;;;;;;27.59;100.00;96797.91;4976091;28;20232;-80
2021/08/22 08:16:14;;;;;;;3.55;3.35;;;;;;;27.70;100.00;96800.44;4976076;28;20643;-79
2021/08/22 08:18:41;;;;;;;3.38;3.03;;;;;;;28.08;100.00;96789.75;4975788;28;20239;-79
2021/08/22 08:21:08;;;;;;;3.45;3.15;;;;;;;28.27;100.00;96793.72;4975490;28;20201;-80
2021/08/22 08:23:36;;;;;;;3.40;3.17;;;;;;;28.79;100.00;96789.50;4975720;28;20295;-79
2021/08/22 08:26:04;;;;;;;5.82;3.80;;;;;;;28.63;100.00;96783.16;4975704;28;20201;-79
2021/08/22 08:28:32;;;;;;;3.90;3.60;;;;;;;29.28;100.00;96795.41;4975918;28;20251;-79
2021/08/22 08:30:59;;;;;;;3.85;3.45;;;;;;;28.64;100.00;96788.28;4975511;28;20233;-79
2021/08/22 08:33:27;;;;;;;3.70;3.40;;;;;;;28.41;100.00;96789.53;4975249;28;20232;-79
2021/08/22 08:35:54;;;;;;;3.47;3.17;;;;;;;28.11;100.00;96792.75;4975844;28;20377;-79
2021/08/22 08:38:22;;;;;;;3.22;3.03;;;;;;;28.24;100.00;96791.53;4975369;28;20664;-80
2021/08/22 08:40:49;;;;;;;4.95;3.85;;;;;;;28.92;100.00;96791.69;4975586;28;20238;-79
2021/08/22 08:43:18;;;;;;;3.50;3.20;;;;;;;28.90;100.00;96791.97;4975179;28;20237;-79
2021/08/22 08:45:51;;;;;;;10.25;4.50;;;;;;;28.47;100.00;96792.25;4975710;28;20664;-79
2021/08/22 08:48:23;;;;;;;4.53;3.30;;;;;;;27.95;100.00;96791.84;4975221;28;20296;-79
2021/08/22 08:50:56;;;;;;;3.70;3.40;;;;;;;27.37;100.00;96787.16;4975035;28;20319;-80
2021/08/22 08:53:24;;;;;;;4.32;4.03;;;;;;;26.91;100.00;96786.53;4975168;28;20185;-79
2021/08/22 08:55:52;;;;;;;3.60;3.33;;;;;;;26.73;100.00;96785.78;4975193;28;20201;-80
2021/08/22 08:58:20;;;;;;;3.78;3.47;;;;;;;26.41;100.00;96784.75;4975057;28;20211;-80
2021/08/22 09:00:48;;;;;;;3.67;3.38;;;;;;;26.47;100.00;96781.09;4974873;28;20682;-80
2021/08/22 09:03:15;;;;;;;3.70;3.40;;;;;;;26.42;100.00;96789.06;4974897;28;20201;-80
2021/08/22 09:06:17;;;;;;;5.10;4.15;;;;;;;26.93;100.00;96774.44;4975057;28;20201;-79
2021/08/22 09:09:21;;;;;;;3.20;3.00;;;;;;;26.94;100.00;96780.66;4975160;28;20234;-79
2021/08/22 09:12:27;;;;;;;3.65;3.25;;;;;;;26.58;100.00;96784.75;4974699;28;20240;-79
2021/08/22 09:15:36;;;;;;;3.47;3.17;;;;;;;26.45;100.00;96778.59;4975233;28;20184;-79
2021/08/22 09:18:56;;;;;;;3.78;3.10;;;;;;;27.45;100.00;96773.19;4967088;28;20201;-80
2021/08/22 09:22:02;;;;;;;4.68;3.42;;;;;;;28.09;100.00;96773.31;4915561;29;20295;-80
2021/08/22 09:25:06;;;;;;;3.33;3.03;;;;;;;27.49;100.00;96772.44;4953042;28;20291;-80
2021/08/22 09:28:21;;;;;;;4.05;3.65;;;;;;;27.59;100.00;96777.13;4974471;28;20678;-79
2021/08/22 09:31:21;;;;;;;4.32;3.95;;;;;;;28.38;100.00;96759.47;4944839;28;20233;-79
2021/08/22 09:34:26;;;;;;;4.03;3.72;;;;;;;28.33;100.00;96764.81;4974795;28;20209;-79
2021/08/22 09:37:34;;;;;;;3.20;3.00;;;;;;;28.13;100.00;96765.50;4974306;28;20201;-80
2021/08/22 09:40:50;;;;;;;5.40;3.40;;;;;;;27.58;100.00;96763.91;4974367;28;20224;-80
2021/08/22 09:43:54;;;;;;;6.47;3.70;;;;;;;28.09;100.00;96749.00;4914497;29;20275;-80
2021/08/22 09:46:57;;;;;;;3.33;3.03;;;;;;;28.73;100.00;96755.38;4974158;28;20236;-80
2021/08/22 09:50:02;;;;;;;4.30;3.90;;;;;;;29.29;100.00;96759.13;4973728;28;20233;-79
2021/08/22 09:53:06;;;;;;;7.97;3.83;;;;;;;29.36;100.00;96759.69;4973932;28;20280;-79
2021/08/22 09:56:14;;;;;;;5.07;3.97;;;;;;;29.14;100.00;96759.09;4974152;28;20745;-80
2021/08/22 09:59:19;;;;;;;4.10;3.78;;;;;;;29.64;100.00;96757.63;4974314;28;20630;-80
2021/08/22 10:02:27;;;;;;;4.28;3.90;;;;;;;30.00;100.00;96757.69;4973833;28;20255;-79
2021/08/22 10:05:54;;;;;;;4.75;3.88;;;;;;;30.40;100.00;96758.75;4974031;28;20189;-79
2021/08/22 10:08:43;;;;;;;4.25;3.95;;;;;;;30.43;100.00;96753.59;4939114;28;20862;-80
2021/08/22 10:11:11;;;;;;;4.68;4.38;;;;;;;30.78;100.00;96755.44;4973493;28;20208;-80
2021/08/22 10:13:39;;;;;;;5.25;4.75;;;;;;;30.55;100.00;96761.44;4973712;28;20204;-79
2021/08/22 10:16:09;;;;;;;4.82;4.43;;;;;;;29.83;100.00;96757.94;4973308;28;20297;-80
2021/08/22 10:18:37;;;;;;;4.80;4.30;;;;;;;29.07;100.00;96756.63;4973842;28;20244;-79
2021/08/22 10:21:07;;;;;;;4.78;4.25;;;;;;;29.20;100.00;96757.22;4973716;28;20589;-79
2021/08/22 10:23:55;;;;;;;6.78;4.97;;;;;;;29.45;100.00;96756.50;4973564;28;20197;-80
2021/08/22 10:27:01;;;;;;;5.38;4.07;;;;;;;28.79;100.00;96744.31;4973470;28;20870;-80
2021/08/22 10:29:30;;;;;;;4.32;3.47;;;;;;;29.06;100.00;96749.59;4968542;28;20737;-80
2021/08/22 10:32:11;;;;;;;4.95;4.55;;;;;;;29.49;100.00;96747.56;4973323;28;20291;-80
2021/08/22 10:34:47;;;;;;;6.60;5.70;;;;;;;28.96;100.00;96746.81;4973789;28;20287;-80
2021/08/22 10:37:29;;;;;;;5.90;5.40;;;;;;;28.63;100.00;96748.81;4973282;28;20665;-80
2021/08/22 10:39:57;;;;;;;5.47;5.07;;;;;;;28.28;100.00;96745.88;4973232;28;20189;-80
2021/08/22 10:42:27;;;;;;;5.57;3.97;;;;;;;28.15;100.00;96747.94;4973187;28;20241;-80
2021/08/22 10:44:55;;;;;;;4.93;4.43;;;;;;;27.97;100.00;96745.63;4973387;28;20622;-80
2021/08/22 10:47:43;;;;;;;4.93;4.60;;;;;;;27.70;100.00;96745.63;4973129;28;20244;-80
2021/08/22 10:50:11;;;;;;;4.25;3.85;;;;;;;27.42;100.00;96752.09;4973070;28;20702;-80
2021/08/22 10:52:40;;;;;;;7.30;4.05;;;;;;;27.52;100.00;96754.09;4973012;28;20247;-80
2021/08/22 10:55:32;;;;;;;4.50;4.20;;;;;;;27.36;100.00;96751.22;4973264;28;20200;-80
2021/08/22 10:58:00;;;;;;;4.57;4.28;;;;;;;27.22;100.00;96745.41;4973082;28;20240;-80
2021/08/22 11:00:28;;;;;;;5.00;4.53;;;;;;;27.38;100.00;96748.28;4972944;28;20197;-80
2021/08/22 11:02:58;;;;;;;5.65;4.32;;;;;;;27.80;100.00;96742.25;4972986;28;20622;-80
2021/08/22 11:05:27;;;;;;;6.47;4.80;;;;;;;28.75;100.00;96742.38;4973074;28;20208;-80
2021/08/22 11:07:55;;;;;;;6.75;4.88;;;;;;;28.80;100.00;96737.81;4972893;28;20201;-80
2021/08/22 11:10:27;;;;;;;4.38;3.97;;;;;;;29.24;100.00;96733.97;4972752;28;20220;-80
2021/08/22 11:12:55;;;;;;;4.90;4.50;;;;;;;29.42;100.00;96722.63;4972824;28;20634;-80
2021/08/22 11:15:27;;;;;;;4.78;4.40;;;;;;;29.15;100.00;96722.81;4973350;28;20205;-80
2021/08/22 11:17:56;;;;;;;5.10;4.63;;;;;;;28.86;100.00;96717.84;4972864;28;20196;-80
2021/08/22 11:20:28;;;;;;;5.43;4.97;;;;;;;28.39;100.00;96724.06;4972717;28;20211;-80
2021/08/22 11:23:05;;;;;;;5.00;4.60;;;;;;;28.17;100.00;96717.97;4973119;28;20192;-80
2021/08/22 11:25:32;;;;;;;4.43;4.13;;;;;;;28.03;100.00;96728.41;4972958;28;20193;-80
2021/08/22 11:28:08;;;;;;;4.63;4.25;;;;;;;27.94;100.00;96725.34;4975569;28;20681;-80
2021/08/22 11:30:35;;;;;;;5.35;4.95;;;;;;;27.84;100.00;96724.44;4976725;28;20295;-80
2021/08/22 11:33:03;;;;;;;4.63;4.28;;;;;;;28.01;100.00;96725.13;4976378;28;20200;-80
2021/08/22 11:35:35;;;;;;;4.32;4.03;;;;;;;27.78;100.00;96725.47;4976649;28;20205;-80
2021/08/22 11:38:02;;;;;;;4.07;3.78;;;;;;;27.65;100.00;96730.22;4976442;28;20277;-80
2021/08/22 11:40:30;;;;;;;5.00;4.30;;;;;;;27.71;100.00;96726.50;4976543;28;20288;-80
2021/08/22 11:42:59;;;;;;;5.72;4.07;;;;;;;27.77;100.00;96719.25;4976204;28;20240;-80
2021/08/22 11:45:28;;;;;;;6.35;4.57;;;;;;;27.58;100.00;96726.09;4976285;28;20256;-80